createdAt,value
2023-09-13T00:04:35.092Z,11.43
2023-09-13T00:09:42.242Z,11.32
2023-09-13T00:14:44.359Z,13.07
2023-09-13T00:19:46.445Z,12.00
2023-09-13T00:24:48.567Z,12.25
2023-09-13T00:29:50.647Z,10.82
2023-09-13T00:34:52.693Z,11.18
2023-09-13T00:39:54.892Z,12.15
2023-09-13T00:44:57.075Z,13.40
2023-09-13T00:50:00.493Z,13.20
2023-09-13T00:55:05.694Z,13.25
2023-09-13T01:00:12.309Z,13.95
2023-09-13T01:05:16.221Z,14.68
2023-09-13T01:10:19.865Z,14.73
2023-09-13T01:15:24.199Z,14.27
2023-09-13T01:21:07.188Z,14.63
2023-09-13T01:27:06.727Z,16.63
2023-09-13T01:32:08.908Z,15.52
2023-09-13T01:37:11.076Z,14.48
2023-09-13T01:42:14.556Z,15.88
2023-09-13T01:47:18.697Z,14.38
2023-09-13T01:52:21.055Z,14.30
2023-09-13T01:57:23.143Z,17.48
2023-09-13T02:02:25.392Z,18.63
2023-09-13T02:07:27.534Z,18.95
2023-09-13T02:12:29.584Z,18.38
2023-09-13T02:17:33.689Z,19.17
2023-09-13T02:22:35.819Z,17.90
2023-09-13T02:27:39.282Z,18.35
2023-09-13T02:32:42.283Z,18.58
2023-09-13T02:37:44.550Z,16.55
2023-09-13T02:42:46.835Z,17.73
2023-09-13T02:47:48.992Z,16.90
2023-09-13T02:52:51.652Z,17.75
2023-09-13T02:57:56.828Z,17.85
2023-09-13T03:02:59.540Z,17.90
2023-09-13T03:08:02.353Z,17.00
2023-09-13T03:13:05.033Z,17.77
2023-09-13T03:18:07.525Z,18.65
2023-09-13T03:23:09.728Z,18.77
2023-09-13T03:28:12.229Z,18.85
2023-09-13T03:33:14.512Z,18.80
2023-09-13T03:38:17.844Z,17.92
2023-09-13T03:43:20.185Z,17.80
2023-09-13T03:48:23.021Z,18.42
2023-09-13T03:53:26.123Z,17.38
2023-09-13T03:58:28.633Z,19.25
2023-09-13T04:03:31.565Z,18.88
2023-09-13T04:08:33.730Z,17.98
2023-09-13T04:13:36.078Z,19.98
2023-09-13T04:18:38.976Z,19.73
2023-09-13T04:23:41.167Z,19.10
2023-09-13T04:28:43.297Z,19.17
2023-09-13T04:33:49.882Z,18.98
2023-09-13T04:38:54.230Z,17.83
2023-09-13T04:43:56.526Z,19.38
2023-09-13T04:48:58.738Z,20.00
2023-09-13T04:54:02.111Z,21.02
2023-09-13T04:59:05.838Z,19.08
2023-09-13T05:04:08.450Z,17.58
2023-09-13T05:09:10.725Z,16.45
2023-09-13T05:14:14.238Z,16.20
2023-09-13T05:19:16.350Z,14.70
2023-09-13T05:24:18.762Z,15.60
2023-09-13T05:29:20.954Z,13.32
2023-09-13T05:34:23.107Z,13.90
2023-09-13T05:39:27.613Z,13.35
2023-09-13T05:44:29.785Z,13.75
2023-09-13T05:49:32.037Z,13.70
2023-09-13T05:54:34.243Z,13.68
2023-09-13T05:59:40.983Z,13.10
2023-09-13T06:04:43.383Z,11.63
2023-09-13T06:09:45.617Z,11.57
2023-09-13T06:14:48.078Z,12.13
2023-09-13T06:19:51.313Z,11.45
2023-09-13T06:24:53.608Z,11.75
2023-09-13T06:29:55.744Z,11.48
2023-09-13T06:34:59.442Z,10.88
2023-09-13T06:40:02.268Z,10.50
2023-09-13T06:50:15.729Z,10.68
2023-09-13T06:55:19.034Z,10.35
2023-09-13T07:00:30.820Z,10.25
2023-09-13T07:05:38.520Z,11.25
2023-09-13T07:10:40.595Z,11.13
2023-09-13T07:15:42.679Z,9.38
2023-09-13T07:20:44.803Z,9.05
2023-09-13T07:25:49.515Z,7.82
2023-09-13T07:30:51.823Z,7.13
2023-09-13T07:35:53.965Z,5.35
2023-09-13T07:40:56.086Z,5.43
2023-09-13T07:45:58.249Z,4.15
2023-09-13T07:51:00.310Z,4.63
2023-09-13T07:56:03.918Z,4.18
2023-09-13T08:01:06.264Z,3.97
2023-09-13T08:06:08.404Z,5.35
2023-09-13T08:11:10.840Z,5.18
2023-09-13T08:16:14.096Z,4.93
2023-09-13T08:21:16.258Z,4.10
2023-09-13T08:26:28.007Z,3.85
2023-09-13T08:31:30.726Z,5.15
2023-09-13T08:36:34.755Z,4.15
2023-09-13T08:41:37.056Z,3.50
2023-09-13T08:46:39.894Z,4.20
2023-09-13T08:51:42.872Z,4.03
2023-09-13T08:56:46.954Z,4.70
2023-09-13T09:01:51.708Z,10.63
2023-09-13T09:06:54.469Z,5.43
2023-09-13T09:12:01.025Z,4.82
2023-09-13T09:17:04.206Z,4.68
2023-09-13T09:22:09.290Z,3.95
2023-09-13T09:27:13.648Z,3.50
2023-09-13T09:32:16.313Z,4.60
2023-09-13T09:37:19.357Z,4.60
2023-09-13T09:42:21.391Z,3.97
2023-09-13T09:47:23.533Z,4.90
2023-09-13T09:52:25.666Z,4.82
2023-09-13T09:57:27.834Z,3.20
2023-09-13T10:02:30.374Z,2.97
2023-09-13T10:07:42.290Z,3.28
2023-09-13T10:12:46.030Z,2.80
2023-09-13T10:17:49.859Z,2.97
2023-09-13T10:22:55.831Z,2.92
2023-09-13T10:28:02.559Z,4.05
2023-09-13T10:33:07.941Z,2.17
2023-09-13T10:38:16.532Z,2.53
2023-09-13T10:43:21.833Z,2.20
2023-09-13T10:48:25.704Z,2.63
2023-09-13T10:53:28.559Z,3.65
2023-09-13T10:58:32.809Z,3.17
2023-09-13T11:03:35.095Z,2.53
2023-09-13T11:08:37.889Z,2.10
2023-09-13T11:13:40.122Z,2.25
2023-09-13T11:18:58.476Z,2.45
2023-09-13T11:24:04.340Z,2.50
2023-09-13T11:29:26.158Z,1.88
2023-09-13T11:34:29.058Z,2.05
2023-09-13T11:39:31.812Z,2.65
2023-09-13T11:44:34.586Z,2.28
2023-09-13T11:49:43.118Z,2.00
2023-09-13T11:55:05.348Z,1.93
2023-09-13T12:00:16.654Z,1.95
2023-09-13T12:05:29.992Z,1.92
2023-09-13T12:10:40.892Z,2.17
2023-09-13T12:16:04.332Z,2.53
2023-09-13T12:21:08.467Z,2.47
2023-09-13T12:26:12.796Z,2.10
2023-09-13T12:31:16.179Z,2.70
2023-09-13T12:36:19.036Z,2.22
2023-09-13T12:41:22.801Z,2.13
2023-09-13T12:46:28.291Z,2.00
2023-09-13T12:51:34.695Z,1.85
2023-09-13T12:56:38.805Z,2.15
2023-09-13T13:01:41.345Z,2.33
2023-09-13T13:06:59.113Z,2.45
2023-09-13T13:12:01.539Z,2.25
2023-09-13T13:17:03.819Z,2.50
2023-09-13T13:22:11.757Z,2.53
2023-09-13T13:27:14.397Z,2.28
2023-09-13T13:32:17.699Z,2.60
2023-09-13T13:37:20.068Z,2.92
2023-09-13T13:42:22.215Z,3.05
2023-09-13T13:47:42.828Z,3.25
2023-09-13T13:52:45.003Z,2.65
2023-09-13T13:57:47.169Z,2.78
2023-09-13T14:02:51.127Z,2.70
2023-09-13T14:07:53.243Z,3.13
2023-09-13T14:12:58.101Z,2.63
2023-09-13T14:18:00.382Z,3.28
2023-09-13T14:23:02.883Z,3.30
2023-09-13T14:28:10.663Z,3.00
2023-09-13T14:33:18.058Z,2.95
2023-09-13T14:38:21.983Z,3.30
2023-09-13T14:43:24.076Z,3.65
2023-09-13T14:48:26.482Z,5.43
2023-09-13T14:53:28.742Z,19.20
2023-09-13T14:58:33.538Z,17.83
2023-09-13T15:03:39.171Z,22.25
2023-09-13T15:08:49.627Z,25.80
2023-09-13T15:13:51.862Z,5.18
2023-09-13T15:18:58.042Z,8.45
2023-09-13T15:24:03.586Z,10.05
2023-09-13T15:29:05.834Z,5.70
2023-09-13T15:34:11.573Z,4.80
2023-09-13T15:39:13.939Z,6.30
2023-09-13T15:44:21.851Z,10.43
2023-09-13T15:49:26.555Z,8.23
2023-09-13T15:54:28.703Z,9.10
2023-09-13T15:59:33.606Z,6.78
2023-09-13T16:04:35.845Z,5.03
2023-09-13T16:09:37.992Z,6.10
2023-09-13T16:14:40.437Z,5.82
2023-09-13T16:19:42.720Z,7.35
2023-09-13T16:24:45.218Z,5.72
2023-09-13T16:29:47.461Z,5.65
2023-09-13T16:34:49.733Z,5.90
2023-09-13T16:39:52.183Z,4.53
2023-09-13T16:44:54.349Z,5.47
2023-09-13T16:49:56.605Z,6.20
2023-09-13T16:54:58.878Z,6.35
2023-09-13T17:00:01.120Z,8.25
2023-09-13T17:05:04.963Z,6.45
2023-09-13T17:10:07.525Z,5.10
2023-09-13T17:15:10.044Z,5.50
2023-09-13T17:20:12.412Z,7.35
2023-09-13T17:25:14.442Z,8.82
2023-09-13T17:30:16.563Z,7.68
2023-09-13T17:35:18.769Z,6.30
2023-09-13T17:40:21.114Z,5.43
2023-09-13T17:45:23.348Z,7.47
2023-09-13T17:50:25.468Z,5.10
2023-09-13T17:55:27.674Z,6.03
2023-09-13T18:00:30.178Z,6.72
2023-09-13T18:05:32.402Z,8.23
2023-09-13T18:10:34.667Z,16.83
2023-09-13T18:15:36.922Z,10.90
2023-09-13T18:20:40.287Z,8.90
2023-09-13T18:25:42.476Z,10.13
2023-09-13T18:30:44.632Z,8.68
2023-09-13T18:35:46.840Z,10.50
2023-09-13T18:40:49.018Z,10.43
2023-09-13T18:46:01.244Z,9.93
2023-09-13T18:51:04.880Z,8.88
2023-09-13T18:56:07.206Z,7.13
2023-09-13T19:01:09.726Z,10.57
2023-09-13T19:06:13.327Z,9.25
2023-09-13T19:11:15.746Z,11.63
2023-09-13T19:16:17.966Z,9.00
2023-09-13T19:21:20.261Z,8.90
2023-09-13T19:26:23.408Z,8.93
2023-09-13T19:31:26.547Z,10.18
2023-09-13T19:36:28.791Z,9.50
2023-09-13T19:41:30.973Z,9.50
2023-09-13T19:46:33.214Z,8.85
2023-09-13T19:51:35.396Z,9.25
2023-09-13T19:56:37.579Z,8.95
2023-09-13T20:01:39.708Z,9.93
2023-09-13T20:06:42.269Z,9.75
2023-09-13T20:11:44.855Z,10.70
2023-09-13T20:16:46.945Z,10.85
2023-09-13T20:21:49.113Z,11.30
2023-09-13T20:26:51.904Z,10.55
2023-09-13T20:31:54.128Z,10.32
2023-09-13T20:36:56.297Z,10.70
2023-09-13T20:41:58.401Z,10.75
2023-09-13T20:47:00.999Z,11.43
2023-09-13T20:52:03.572Z,12.32
2023-09-13T20:57:08.648Z,12.35
2023-09-13T21:02:10.771Z,12.73
2023-09-13T21:07:12.885Z,12.48
2023-09-13T21:12:15.054Z,11.52
2023-09-13T21:17:17.153Z,11.73
2023-09-13T21:22:19.263Z,11.18
2023-09-13T21:27:22.036Z,11.02
2023-09-13T21:32:24.349Z,10.10
2023-09-13T21:37:26.571Z,12.45
2023-09-13T21:42:28.882Z,12.63
2023-09-13T21:47:31.084Z,10.85
2023-09-13T21:52:33.185Z,11.95
2023-09-13T21:57:39.266Z,11.68
2023-09-13T22:02:41.477Z,11.60
2023-09-13T22:07:45.037Z,12.75
2023-09-13T22:12:47.271Z,10.63
2023-09-13T22:17:51.416Z,11.98
2023-09-13T22:22:53.771Z,10.93
2023-09-13T22:27:55.893Z,9.50
2023-09-13T22:32:58.050Z,9.82
2023-09-13T22:38:00.214Z,10.95
2023-09-13T22:43:03.056Z,11.07
2023-09-13T22:48:07.342Z,10.50
2023-09-13T22:53:09.559Z,12.75
2023-09-13T22:58:11.639Z,11.23
2023-09-13T23:03:14.563Z,10.55
2023-09-13T23:08:17.645Z,10.32
2023-09-13T23:13:19.730Z,9.90
2023-09-13T23:18:23.204Z,12.52
2023-09-13T23:23:26.464Z,11.05
2023-09-13T23:28:28.595Z,10.63
2023-09-13T23:33:30.808Z,10.85
2023-09-13T23:38:33.658Z,11.00
2023-09-13T23:43:37.019Z,11.40
2023-09-13T23:48:41.168Z,11.50
2023-09-13T23:53:50.100Z,11.13
2023-09-13T23:58:54.923Z,9.88
